Time;durP1;ratioP1;P1;durP2;ratioP2;P2;SDS_P1;SDS_P2;PMS_P1;PMS_P2;Temp;Humidity;BMP_temperature;BMP_pressure;BME280_temperature;BME280_humidity;BME280_pressure;Samples;Min_cycle;Max_cycle;Signal;HPM_P1;HPM_P2
2022/05/10 00:05:16;;;;;;;8.70;6.07;;;15.50;84.20;;;;;;20994845;28;20211;-69
2022/05/10 00:15:18;;;;;;;7.73;6.00;;;15.30;85.10;;;;;;20994384;28;20239;-65
2022/05/10 00:25:29;;;;;;;6.80;6.00;;;15.20;85.70;;;;;;20993672;28;20244;-69
2022/05/10 00:35:34;;;;;;;7.30;6.00;;;15.10;86.30;;;;;;20997099;28;20329;-68
2022/05/10 00:45:47;;;;;;;9.30;5.90;;;15.10;86.90;;;;;;21008786;28;20251;-68
2022/05/10 00:55:58;;;;;;;8.70;5.70;;;15.00;87.30;;;;;;21007552;28;20241;-69
2022/05/10 01:06:27;;;;;;;7.70;6.00;;;14.90;87.60;;;;;;21006711;28;20253;-66
2022/05/10 01:16:28;;;;;;;9.33;6.07;;;14.80;88.20;;;;;;21006243;28;20241;-67
2022/05/10 01:27:02;;;;;;;8.77;6.63;;;14.70;88.70;;;;;;21005735;28;20253;-66
2022/05/10 01:37:11;;;;;;;7.27;6.17;;;14.60;89.00;;;;;;21004652;28;20228;-65
2022/05/10 01:47:13;;;;;;;7.10;6.40;;;14.60;89.50;;;;;;21002864;28;20605;-64
2022/05/10 01:57:18;;;;;;;8.10;6.20;;;14.40;89.70;;;;;;21002041;28;20699;-64
2022/05/10 02:07:22;;;;;;;6.87;6.17;;;14.30;90.10;;;;;;21001972;28;20225;-64
2022/05/10 02:17:42;;;;;;;8.20;6.43;;;14.10;90.30;;;;;;21000513;28;20244;-64
2022/05/10 02:27:49;;;;;;;6.93;6.23;;;14.00;90.60;;;;;;21000568;28;20577;-66
2022/05/10 02:37:52;;;;;;;8.07;6.13;;;13.90;90.80;;;;;;20999257;28;20239;-64
2022/05/10 02:47:54;;;;;;;7.00;6.30;;;13.90;90.80;;;;;;20998801;28;20199;-65
2022/05/10 02:58:04;;;;;;;9.27;6.77;;;13.90;91.00;;;;;;20997708;28;20233;-69
2022/05/10 03:08:06;;;;;;;7.20;6.27;;;13.80;91.00;;;;;;20998274;28;20199;-66
2022/05/10 03:18:08;;;;;;;8.10;6.17;;;13.70;91.10;;;;;;20996293;28;20234;-66
2022/05/10 03:28:10;;;;;;;9.23;6.20;;;13.70;91.10;;;;;;20996470;28;20653;-64
2022/05/10 03:38:12;;;;;;;8.83;6.00;;;13.60;91.30;;;;;;20995028;28;20236;-65
2022/05/10 03:48:13;;;;;;;6.63;5.90;;;13.50;91.30;;;;;;20994630;28;20611;-66
2022/05/10 03:58:15;;;;;;;9.00;6.27;;;13.40;91.40;;;;;;20994610;28;20287;-67
2022/05/10 04:08:17;;;;;;;8.67;6.07;;;13.50;91.40;;;;;;20993554;28;20211;-64
2022/05/10 04:18:19;;;;;;;7.50;6.30;;;13.50;91.50;;;;;;21013571;28;20242;-65
2022/05/10 04:28:20;;;;;;;10.53;6.43;;;13.50;91.40;;;;;;21011487;28;20668;-67
2022/05/10 04:38:22;;;;;;;17.03;8.90;;;13.50;91.50;;;;;;21008818;28;20715;-66
2022/05/10 04:48:24;;;;;;;11.87;6.50;;;13.60;91.60;;;;;;21008958;28;20273;-63
2022/05/10 04:58:26;;;;;;;9.50;6.57;;;13.70;91.50;;;;;;21007414;28;20249;-65
2022/05/10 05:08:27;;;;;;;9.93;7.13;;;13.80;91.70;;;;;;21007013;28;20212;-65
2022/05/10 05:18:30;;;;;;;8.20;6.53;;;13.90;91.70;;;;;;21010246;28;20250;-66
2022/05/10 05:28:32;;;;;;;14.23;7.57;;;14.20;91.80;;;;;;21006201;28;20559;-65
2022/05/10 05:38:35;;;;;;;14.93;7.87;;;14.40;91.60;;;;;;21003929;28;20235;-68
2022/05/10 05:48:37;;;;;;;22.83;8.50;;;14.60;91.60;;;;;;21003394;28;20213;-65
2022/05/10 05:58:40;;;;;;;19.33;8.90;;;14.80;91.40;;;;;;21002333;28;20241;-68
2022/05/10 06:08:41;;;;;;;22.17;9.10;;;15.10;91.50;;;;;;21001223;28;20270;-69
2022/05/10 06:18:43;;;;;;;21.17;8.87;;;15.40;91.20;;;;;;20998872;28;20244;-65
2022/05/10 06:28:45;;;;;;;22.03;8.37;;;15.60;91.00;;;;;;20999147;28;20207;-65
2022/05/10 06:38:47;;;;;;;25.53;9.13;;;15.80;90.90;;;;;;20998180;28;20235;-68
2022/05/10 06:48:49;;;;;;;20.23;11.90;;;16.20;90.60;;;;;;20997867;28;20613;-65
2022/05/10 06:58:51;;;;;;;24.80;10.97;;;16.40;90.40;;;;;;20997558;28;20235;-70
2022/05/10 07:08:52;;;;;;;30.83;13.77;;;16.50;90.30;;;;;;21000292;28;20265;-69
2022/05/10 07:18:55;;;;;;;25.87;15.20;;;16.70;90.20;;;;;;20994573;28;20301;-69
2022/05/10 07:28:57;;;;;;;50.33;28.67;;;17.00;89.90;;;;;;20993995;28;20206;-70
2022/05/10 07:39:09;;;;;;;48.83;26.77;;;17.40;89.30;;;;;;20993116;28;20231;-66
2022/05/10 07:49:11;;;;;;;28.33;16.37;;;17.60;88.80;;;;;;20992810;28;20682;-65
2022/05/10 07:59:13;;;;;;;37.50;23.13;;;17.80;87.90;;;;;;20993541;28;20231;-69
2022/05/10 08:09:14;;;;;;;27.03;19.43;;;18.20;87.50;;;;;;20992690;28;20204;-67
2022/05/10 08:19:16;;;;;;;15.87;12.10;;;18.70;87.00;;;;;;20991703;28;20723;-68
2022/05/10 08:29:18;;;;;;;13.53;10.00;;;19.00;85.80;;;;;;20989619;28;20202;-69
2022/05/10 08:39:22;;;;;;;12.60;9.47;;;19.30;85.70;;;;;;20990804;28;20233;-69
2022/05/10 08:49:33;;;;;;;9.03;8.00;;;19.70;85.90;;;;;;20990940;28;20720;-69
2022/05/10 09:00:03;;;;;;;13.23;8.80;;;20.10;86.10;;;;;;20998998;28;20234;-70
2022/05/10 09:10:16;;;;;;;12.97;9.70;;;20.40;85.90;;;;;;21004847;28;20219;-69
2022/05/10 09:20:19;;;;;;;16.43;10.20;;;20.70;85.80;;;;;;21006501;28;20726;-66
2022/05/10 09:30:34;;;;;;;13.57;8.70;;;21.00;85.60;;;;;;21006662;28;20264;-65
2022/05/10 09:40:41;;;;;;;12.63;9.23;;;21.30;85.00;;;;;;21003992;28;20235;-67
2022/05/10 09:50:51;;;;;;;11.20;8.10;;;21.70;84.20;;;;;;21002831;28;20211;-67
2022/05/10 10:00:53;;;;;;;10.43;7.20;;;22.00;82.80;;;;;;21001743;28;20238;-64
2022/05/10 10:10:55;;;;;;;8.90;8.00;;;22.10;82.00;;;;;;21000340;28;20210;-67
2022/05/10 10:20:57;;;;;;;7.10;6.20;;;22.40;80.30;;;;;;21002346;28;20249;-65
2022/05/10 10:31:19;;;;;;;7.03;6.00;;;22.70;78.30;;;;;;21004222;28;20199;-64
2022/05/10 10:42:03;;;;;;;7.03;5.40;;;22.90;72.00;;;;;;21007118;28;20326;-67
2022/05/10 10:52:05;;;;;;;5.93;5.10;;;23.00;67.80;;;;;;20999675;28;20299;-66
2022/05/10 11:02:35;;;;;;;7.57;4.90;;;23.20;65.40;;;;;;21000573;28;20231;-69
2022/05/10 11:12:59;;;;;;;5.90;4.67;;;23.30;64.20;;;;;;20997096;28;20204;-68
2022/05/10 11:23:10;;;;;;;6.73;4.80;;;23.70;61.00;;;;;;20994767;28;20239;-67
2022/05/10 11:33:20;;;;;;;9.10;4.43;;;24.10;59.30;;;;;;20993809;28;20203;-68
2022/05/10 11:43:36;;;;;;;5.90;4.90;;;24.20;58.30;;;;;;20994695;28;20234;-66
2022/05/10 11:54:02;;;;;;;5.97;4.37;;;24.40;57.40;;;;;;20992877;28;20245;-69
2022/05/10 12:04:04;;;;;;;6.73;4.03;;;24.80;55.90;;;;;;20993208;28;20231;-68
2022/05/10 12:24:50;;;;;;;5.60;4.00;;;25.20;53.20;;;;;;20992842;28;20214;-69
2022/05/10 12:34:53;;;;;;;8.27;4.47;;;25.10;52.60;;;;;;21003786;28;20588;-69
2022/05/10 12:45:07;;;;;;;4.23;3.83;;;25.10;52.00;;;;;;21012091;28;20203;-68
2022/05/10 12:55:27;;;;;;;5.00;3.80;;;25.20;51.40;;;;;;21006946;28;20317;-67
2022/05/10 13:06:00;;;;;;;8.33;4.73;;;25.30;51.00;;;;;;21005784;28;20240;-67
2022/05/10 13:16:02;;;;;;;4.10;3.40;;;25.70;50.20;;;;;;21004976;28;20239;-68
2022/05/10 13:26:09;;;;;;;4.37;3.60;;;25.80;49.00;;;;;;21005183;28;20208;-66
2022/05/10 13:36:16;;;;;;;5.60;3.67;;;25.90;48.20;;;;;;21004359;28;20239;-68
2022/05/10 13:46:20;;;;;;;4.27;3.50;;;26.00;48.10;;;;;;21002028;28;20286;-68
2022/05/10 13:56:27;;;;;;;8.07;3.90;;;26.10;47.90;;;;;;21002955;28;20333;-66
2022/05/10 14:06:29;;;;;;;6.53;3.80;;;26.20;47.10;;;;;;21002425;28;20237;-66
2022/05/10 14:16:35;;;;;;;6.70;3.90;;;26.20;47.10;;;;;;21001193;28;20273;-69
2022/05/10 14:26:42;;;;;;;8.60;3.53;;;26.10;47.40;;;;;;21001691;28;20286;-67
2022/05/10 14:36:47;;;;;;;5.83;3.90;;;26.10;47.00;;;;;;20999717;28;20231;-67
2022/05/10 14:46:55;;;;;;;6.60;4.17;;;26.40;47.30;;;;;;20998288;28;20214;-64
2022/05/10 14:57:00;;;;;;;6.10;3.90;;;26.10;48.00;;;;;;20997810;28;20231;-69
2022/05/10 15:07:02;;;;;;;12.43;3.77;;;26.00;48.20;;;;;;20996998;28;20624;-67
2022/05/10 15:17:17;;;;;;;5.30;4.03;;;26.10;48.60;;;;;;20996015;28;20666;-68
2022/05/10 15:27:22;;;;;;;9.00;4.70;;;26.40;48.10;;;;;;20996255;28;20309;-70
2022/05/10 15:37:25;;;;;;;7.63;4.17;;;26.20;48.10;;;;;;21022182;28;20238;-67
2022/05/10 15:47:30;;;;;;;4.50;4.10;;;25.80;48.50;;;;;;21008062;28;20565;-69
2022/05/10 15:57:38;;;;;;;4.57;3.83;;;25.70;49.00;;;;;;20996591;28;20249;-74
2022/05/10 16:07:40;;;;;;;6.90;3.77;;;25.50;49.30;;;;;;20998243;28;20724;-68
2022/05/10 16:17:41;;;;;;;4.13;3.73;;;25.50;49.60;;;;;;21009901;28;20278;-72
2022/05/10 16:38:09;;;;;;;4.63;3.80;;;25.00;50.50;;;;;;21008797;28;20227;-73
2022/05/10 16:48:11;;;;;;;5.10;4.10;;;24.80;50.80;;;;;;21008404;28;20203;-73
2022/05/10 16:58:13;;;;;;;6.23;3.83;;;24.80;51.30;;;;;;21029885;28;20231;-66
2022/05/10 17:08:19;;;;;;;9.07;3.93;;;24.70;52.00;;;;;;21058494;28;20259;-76
2022/05/10 17:18:22;;;;;;;17.50;4.43;;;24.60;53.00;;;;;;21025356;28;20227;-70
2022/05/10 17:28:40;;;;;;;67.83;6.47;;;24.40;53.90;;;;;;21011010;28;20203;-68
2022/05/10 17:38:42;;;;;;;14.27;4.80;;;24.20;55.00;;;;;;21007205;28;20243;-68
2022/05/10 17:48:44;;;;;;;6.00;4.30;;;24.00;55.60;;;;;;20998495;28;20203;-73
2022/05/10 17:58:47;;;;;;;4.17;3.77;;;23.90;56.10;;;;;;21002045;28;20231;-69
2022/05/10 18:08:49;;;;;;;5.70;4.10;;;23.70;56.70;;;;;;21000573;28;20203;-73
2022/05/10 18:18:54;;;;;;;10.07;4.43;;;23.60;57.20;;;;;;21000581;28;20239;-74
2022/05/10 18:28:56;;;;;;;5.90;4.30;;;23.40;57.80;;;;;;20999425;28;20211;-72
2022/05/10 18:38:57;;;;;;;7.60;4.33;;;23.30;58.40;;;;;;20999259;28;20231;-73
2022/05/10 18:48:59;;;;;;;4.93;4.43;;;23.10;59.00;;;;;;20998199;28;20659;-63
2022/05/10 18:59:02;;;;;;;8.90;4.50;;;22.90;59.50;;;;;;20997804;28;20736;-61
2022/05/10 19:09:04;;;;;;;5.60;4.37;;;22.80;60.00;;;;;;20997930;28;20215;-63
2022/05/10 19:19:06;;;;;;;5.37;4.47;;;22.60;60.30;;;;;;20994301;28;20243;-72
2022/05/10 19:29:08;;;;;;;7.73;4.80;;;22.60;60.70;;;;;;20994067;28;20199;-73
2022/05/10 19:39:12;;;;;;;5.70;4.43;;;22.50;61.00;;;;;;20993222;28;20235;-70
2022/05/10 19:49:14;;;;;;;7.10;4.20;;;22.50;60.90;;;;;;20992838;28;20210;-70
2022/05/10 19:59:16;;;;;;;6.20;4.77;;;22.40;60.80;;;;;;20992374;28;20265;-72
2022/05/10 20:09:18;;;;;;;6.17;5.03;;;22.40;61.00;;;;;;20992322;28;20214;-70
2022/05/10 20:19:20;;;;;;;16.27;4.60;;;22.30;61.40;;;;;;20991465;28;20247;-66
2022/05/10 20:29:22;;;;;;;7.43;4.97;;;22.20;61.80;;;;;;20991342;28;20306;-67
2022/05/10 20:39:24;;;;;;;5.60;4.97;;;22.20;62.30;;;;;;20991545;28;20242;-67
2022/05/10 20:49:26;;;;;;;8.57;5.80;;;22.00;63.90;;;;;;20993212;28;20566;-68
2022/05/10 20:59:28;;;;;;;8.80;6.17;;;21.80;65.00;;;;;;21031776;28;20227;-72
2022/05/10 21:09:30;;;;;;;8.47;5.33;;;21.60;66.30;;;;;;21004385;28;20225;-73
2022/05/10 21:19:32;;;;;;;8.00;6.03;;;21.40;67.50;;;;;;21010999;28;20243;-69
2022/05/10 21:39:55;;;;;;;10.10;6.63;;;21.10;69.50;;;;;;21013856;28;20238;-64
2022/05/10 21:49:57;;;;;;;12.77;6.93;;;20.90;70.90;;;;;;21004671;28;20624;-69
2022/05/10 21:59:58;;;;;;;8.60;6.47;;;20.70;72.60;;;;;;21003501;28;20237;-70
2022/05/10 22:10:00;;;;;;;8.80;7.10;;;20.50;73.80;;;;;;21001995;28;20206;-72
2022/05/10 22:20:05;;;;;;;8.87;7.43;;;20.40;75.10;;;;;;21001494;28;20261;-70
2022/05/10 22:30:11;;;;;;;13.20;6.77;;;20.20;76.50;;;;;;21000664;28;20213;-68
2022/05/10 22:40:16;;;;;;;8.97;7.27;;;20.10;78.00;;;;;;21000456;28;20302;-70
2022/05/10 22:50:22;;;;;;;12.73;6.90;;;19.90;79.50;;;;;;20999317;28;20260;-72
2022/05/10 23:00:24;;;;;;;11.03;8.00;;;19.70;80.90;;;;;;20998765;28;20720;-65
2022/05/10 23:10:25;;;;;;;10.70;7.63;;;19.60;82.00;;;;;;20998168;28;20203;-71
2022/05/10 23:20:28;;;;;;;11.00;7.70;;;19.40;83.10;;;;;;21050548;28;20257;-70
2022/05/10 23:30:30;;;;;;;9.67;7.93;;;19.30;84.40;;;;;;21080076;28;20216;-67
2022/05/10 23:40:32;;;;;;;9.73;7.60;;;19.10;86.00;;;;;;21079747;28;20647;-70
2022/05/10 23:50:39;;;;;;;9.03;7.53;;;19.00;87.10;;;;;;21079127;28;20304;-70
